Accueil
METAR-TAF:

METAR-TAF

Aéroports :

Flessingue, Pays-Bas

latitude: 51-27N, longitude: 3-36E, altitude: 10 m

Observation

Le bulletin a été fait il y a 18 minutes, à 23:55 UTC
Vent 8 kt de nord/nord-ouest, variant entre ouest/nord-ouest et nord-est
Température 16°C
Humidité 100%
Pression 1008 hPa
Visibilité: 5000 m
brume

METAR: EHFS 192355Z AUTO 34008KT 290V040 5000 BR BKN003/// BKN004/// OVC006/// 16/16 Q1008

Heure: 02:13 (00:13 UTC)


TAF: absent

Observations et prévisions météorologiques de plus de 4000 aéroports (messages METAR et TAF).

Les stations disponibles sont représentées par des disques jaunes et rouges sur la carte.

Passer la souris dessus pour voir le nom de la station.

Cliquer dessus pour voir les observations et prévisions météorologiques.

Pour changer de carte: cliquez sur les boutons verts avec une croix noire pour zoomer, sur le bouton vert avec un tiret pour effectuer un zoom arrière, ou sur les flèches vertes pour les cartes adjacentes.


METAR-TAF: